sensor_id;sensor_type;location;lat;lon;timestamp;P1;durP1;ratioP1;P2;durP2;ratioP2
5801;SDS011;2927;49.366;8.530;2023-04-16T00:01:26;14.60;;;10.57;;
5801;SDS011;2927;49.366;8.530;2023-04-16T00:03:51;15.83;;;10.17;;
5801;SDS011;2927;49.366;8.530;2023-04-16T00:06:17;18.43;;;11.00;;
5801;SDS011;2927;49.366;8.530;2023-04-16T00:08:43;16.40;;;11.50;;
5801;SDS011;2927;49.366;8.530;2023-04-16T00:11:09;23.50;;;11.63;;
5801;SDS011;2927;49.366;8.530;2023-04-16T00:13:34;19.20;;;11.60;;
5801;SDS011;2927;49.366;8.530;2023-04-16T00:16:00;17.37;;;11.50;;
5801;SDS011;2927;49.366;8.530;2023-04-16T00:18:25;16.57;;;11.23;;
5801;SDS011;2927;49.366;8.530;2023-04-16T00:20:51;17.87;;;12.00;;
5801;SDS011;2927;49.366;8.530;2023-04-16T00:23:17;23.43;;;13.30;;
5801;SDS011;2927;49.366;8.530;2023-04-16T00:25:43;19.77;;;11.97;;
5801;SDS011;2927;49.366;8.530;2023-04-16T00:28:09;26.57;;;15.27;;
5801;SDS011;2927;49.366;8.530;2023-04-16T00:30:36;22.50;;;13.83;;
5801;SDS011;2927;49.366;8.530;2023-04-16T00:33:01;23.27;;;13.27;;
5801;SDS011;2927;49.366;8.530;2023-04-16T00:35:28;22.27;;;14.23;;
5801;SDS011;2927;49.366;8.530;2023-04-16T00:37:54;20.63;;;13.50;;
5801;SDS011;2927;49.366;8.530;2023-04-16T00:40:19;21.53;;;13.27;;
5801;SDS011;2927;49.366;8.530;2023-04-16T00:42:45;24.03;;;13.87;;
5801;SDS011;2927;49.366;8.530;2023-04-16T00:45:11;26.00;;;15.47;;
5801;SDS011;2927;49.366;8.530;2023-04-16T00:47:36;18.47;;;13.20;;
5801;SDS011;2927;49.366;8.530;2023-04-16T00:50:02;22.20;;;13.73;;
5801;SDS011;2927;49.366;8.530;2023-04-16T00:52:29;27.03;;;15.30;;
5801;SDS011;2927;49.366;8.530;2023-04-16T00:54:56;22.90;;;13.33;;
5801;SDS011;2927;49.366;8.530;2023-04-16T00:57:23;26.57;;;13.03;;
5801;SDS011;2927;49.366;8.530;2023-04-16T00:59:48;24.93;;;13.70;;
5801;SDS011;2927;49.366;8.530;2023-04-16T01:02:14;30.67;;;15.10;;
5801;SDS011;2927;49.366;8.530;2023-04-16T01:04:40;27.67;;;15.93;;
5801;SDS011;2927;49.366;8.530;2023-04-16T01:07:06;25.27;;;14.37;;
5801;SDS011;2927;49.366;8.530;2023-04-16T01:09:32;23.00;;;13.60;;
5801;SDS011;2927;49.366;8.530;2023-04-16T01:11:57;22.37;;;14.03;;
5801;SDS011;2927;49.366;8.530;2023-04-16T01:14:23;27.63;;;15.93;;
5801;SDS011;2927;49.366;8.530;2023-04-16T01:16:48;23.23;;;14.03;;
5801;SDS011;2927;49.366;8.530;2023-04-16T01:19:14;24.73;;;15.30;;
5801;SDS011;2927;49.366;8.530;2023-04-16T01:21:40;28.80;;;15.30;;
5801;SDS011;2927;49.366;8.530;2023-04-16T01:24:05;27.87;;;15.53;;
5801;SDS011;2927;49.366;8.530;2023-04-16T01:26:31;25.33;;;16.07;;
5801;SDS011;2927;49.366;8.530;2023-04-16T01:28:57;23.30;;;14.23;;
5801;SDS011;2927;49.366;8.530;2023-04-16T01:31:23;32.23;;;15.20;;
5801;SDS011;2927;49.366;8.530;2023-04-16T01:33:49;27.23;;;14.10;;
5801;SDS011;2927;49.366;8.530;2023-04-16T01:36:14;30.13;;;16.30;;
5801;SDS011;2927;49.366;8.530;2023-04-16T01:38:40;23.93;;;13.93;;
5801;SDS011;2927;49.366;8.530;2023-04-16T01:41:06;24.77;;;13.83;;
5801;SDS011;2927;49.366;8.530;2023-04-16T01:43:31;23.67;;;13.87;;
5801;SDS011;2927;49.366;8.530;2023-04-16T01:46:12;26.03;;;14.10;;
5801;SDS011;2927;49.366;8.530;2023-04-16T01:48:41;28.00;;;14.30;;
5801;SDS011;2927;49.366;8.530;2023-04-16T01:51:07;21.40;;;13.50;;
5801;SDS011;2927;49.366;8.530;2023-04-16T01:53:34;25.03;;;14.70;;
5801;SDS011;2927;49.366;8.530;2023-04-16T01:56:00;30.90;;;14.57;;
5801;SDS011;2927;49.366;8.530;2023-04-16T01:58:27;25.53;;;15.30;;
5801;SDS011;2927;49.366;8.530;2023-04-16T02:00:53;25.77;;;15.47;;
5801;SDS011;2927;49.366;8.530;2023-04-16T02:03:19;23.67;;;14.17;;
5801;SDS011;2927;49.366;8.530;2023-04-16T02:05:45;25.70;;;14.57;;
5801;SDS011;2927;49.366;8.530;2023-04-16T02:08:11;27.93;;;13.47;;
5801;SDS011;2927;49.366;8.530;2023-04-16T02:10:36;25.50;;;15.60;;
5801;SDS011;2927;49.366;8.530;2023-04-16T02:13:02;25.00;;;15.20;;
5801;SDS011;2927;49.366;8.530;2023-04-16T02:15:28;28.50;;;14.60;;
5801;SDS011;2927;49.366;8.530;2023-04-16T02:17:53;23.77;;;14.53;;
5801;SDS011;2927;49.366;8.530;2023-04-16T02:20:20;28.53;;;16.47;;
5801;SDS011;2927;49.366;8.530;2023-04-16T02:22:46;29.83;;;16.50;;
5801;SDS011;2927;49.366;8.530;2023-04-16T02:25:12;27.93;;;15.90;;
5801;SDS011;2927;49.366;8.530;2023-04-16T02:27:38;28.67;;;16.27;;
5801;SDS011;2927;49.366;8.530;2023-04-16T02:30:04;29.97;;;17.30;;
5801;SDS011;2927;49.366;8.530;2023-04-16T02:32:30;30.33;;;15.53;;
5801;SDS011;2927;49.366;8.530;2023-04-16T02:34:55;30.77;;;16.67;;
5801;SDS011;2927;49.366;8.530;2023-04-16T02:37:21;35.60;;;16.50;;
5801;SDS011;2927;49.366;8.530;2023-04-16T02:39:47;29.40;;;16.77;;
5801;SDS011;2927;49.366;8.530;2023-04-16T02:42:14;25.47;;;14.50;;
5801;SDS011;2927;49.366;8.530;2023-04-16T02:44:40;31.70;;;16.27;;
5801;SDS011;2927;49.366;8.530;2023-04-16T02:47:05;26.70;;;15.03;;
5801;SDS011;2927;49.366;8.530;2023-04-16T02:49:31;29.33;;;15.87;;
5801;SDS011;2927;49.366;8.530;2023-04-16T02:51:56;31.23;;;16.50;;
5801;SDS011;2927;49.366;8.530;2023-04-16T02:54:22;27.97;;;15.50;;
5801;SDS011;2927;49.366;8.530;2023-04-16T02:56:47;25.40;;;14.70;;
5801;SDS011;2927;49.366;8.530;2023-04-16T02:59:13;28.30;;;15.53;;
5801;SDS011;2927;49.366;8.530;2023-04-16T03:01:38;28.80;;;17.20;;
5801;SDS011;2927;49.366;8.530;2023-04-16T03:04:04;27.93;;;15.27;;
5801;SDS011;2927;49.366;8.530;2023-04-16T03:06:30;26.53;;;15.17;;
5801;SDS011;2927;49.366;8.530;2023-04-16T03:08:55;33.40;;;16.00;;
5801;SDS011;2927;49.366;8.530;2023-04-16T03:11:21;31.53;;;16.33;;
5801;SDS011;2927;49.366;8.530;2023-04-16T03:13:47;28.33;;;15.60;;
5801;SDS011;2927;49.366;8.530;2023-04-16T03:16:13;30.37;;;16.53;;
5801;SDS011;2927;49.366;8.530;2023-04-16T03:18:38;26.77;;;15.07;;
5801;SDS011;2927;49.366;8.530;2023-04-16T03:21:04;26.20;;;15.77;;
5801;SDS011;2927;49.366;8.530;2023-04-16T03:23:29;32.43;;;17.17;;
5801;SDS011;2927;49.366;8.530;2023-04-16T03:25:55;29.57;;;16.90;;
5801;SDS011;2927;49.366;8.530;2023-04-16T03:28:20;30.00;;;16.63;;
5801;SDS011;2927;49.366;8.530;2023-04-16T03:30:50;30.43;;;16.30;;
5801;SDS011;2927;49.366;8.530;2023-04-16T03:33:16;31.43;;;16.40;;
5801;SDS011;2927;49.366;8.530;2023-04-16T03:35:42;32.27;;;17.10;;
5801;SDS011;2927;49.366;8.530;2023-04-16T03:38:08;33.43;;;17.80;;
5801;SDS011;2927;49.366;8.530;2023-04-16T03:40:33;32.17;;;16.30;;
5801;SDS011;2927;49.366;8.530;2023-04-16T03:42:59;35.90;;;19.20;;
5801;SDS011;2927;49.366;8.530;2023-04-16T03:45:24;29.93;;;17.47;;
5801;SDS011;2927;49.366;8.530;2023-04-16T03:47:50;29.73;;;16.73;;
5801;SDS011;2927;49.366;8.530;2023-04-16T03:50:22;35.20;;;18.87;;
5801;SDS011;2927;49.366;8.530;2023-04-16T03:52:48;31.90;;;18.20;;
5801;SDS011;2927;49.366;8.530;2023-04-16T03:55:14;34.30;;;17.70;;
5801;SDS011;2927;49.366;8.530;2023-04-16T03:57:39;35.60;;;17.90;;
5801;SDS011;2927;49.366;8.530;2023-04-16T04:00:06;34.57;;;18.77;;
5801;SDS011;2927;49.366;8.530;2023-04-16T04:02:31;28.57;;;16.00;;
5801;SDS011;2927;49.366;8.530;2023-04-16T04:04:57;30.70;;;17.73;;
5801;SDS011;2927;49.366;8.530;2023-04-16T04:07:22;29.80;;;16.90;;
5801;SDS011;2927;49.366;8.530;2023-04-16T04:09:48;26.80;;;16.70;;
5801;SDS011;2927;49.366;8.530;2023-04-16T04:12:13;35.00;;;17.63;;
5801;SDS011;2927;49.366;8.530;2023-04-16T04:14:39;29.67;;;16.30;;
5801;SDS011;2927;49.366;8.530;2023-04-16T04:17:05;30.57;;;17.00;;
5801;SDS011;2927;49.366;8.530;2023-04-16T04:19:32;34.10;;;17.43;;
5801;SDS011;2927;49.366;8.530;2023-04-16T04:21:57;33.37;;;17.10;;
5801;SDS011;2927;49.366;8.530;2023-04-16T04:24:23;37.83;;;18.13;;
5801;SDS011;2927;49.366;8.530;2023-04-16T04:26:49;26.60;;;16.73;;
5801;SDS011;2927;49.366;8.530;2023-04-16T04:29:14;36.27;;;17.80;;
5801;SDS011;2927;49.366;8.530;2023-04-16T04:31:40;33.50;;;17.70;;
5801;SDS011;2927;49.366;8.530;2023-04-16T04:34:05;30.73;;;16.10;;
5801;SDS011;2927;49.366;8.530;2023-04-16T04:36:31;34.60;;;17.30;;
5801;SDS011;2927;49.366;8.530;2023-04-16T04:38:56;29.10;;;14.73;;
5801;SDS011;2927;49.366;8.530;2023-04-16T04:41:22;30.73;;;17.40;;
5801;SDS011;2927;49.366;8.530;2023-04-16T04:43:47;32.23;;;16.00;;
5801;SDS011;2927;49.366;8.530;2023-04-16T04:46:13;31.53;;;16.00;;
5801;SDS011;2927;49.366;8.530;2023-04-16T04:48:38;28.53;;;14.10;;
5801;SDS011;2927;49.366;8.530;2023-04-16T04:51:04;25.10;;;14.00;;
5801;SDS011;2927;49.366;8.530;2023-04-16T04:53:30;30.60;;;15.27;;
5801;SDS011;2927;49.366;8.530;2023-04-16T04:55:55;32.70;;;16.33;;
5801;SDS011;2927;49.366;8.530;2023-04-16T04:58:21;25.03;;;15.80;;
5801;SDS011;2927;49.366;8.530;2023-04-16T05:00:46;25.10;;;13.60;;
5801;SDS011;2927;49.366;8.530;2023-04-16T05:03:12;27.37;;;14.87;;
5801;SDS011;2927;49.366;8.530;2023-04-16T05:05:44;22.87;;;13.67;;
5801;SDS011;2927;49.366;8.530;2023-04-16T05:08:09;23.10;;;13.87;;
5801;SDS011;2927;49.366;8.530;2023-04-16T05:10:35;27.00;;;14.07;;
5801;SDS011;2927;49.366;8.530;2023-04-16T05:13:00;24.27;;;13.90;;
5801;SDS011;2927;49.366;8.530;2023-04-16T05:15:26;26.97;;;14.50;;
5801;SDS011;2927;49.366;8.530;2023-04-16T05:17:52;21.10;;;13.03;;
5801;SDS011;2927;49.366;8.530;2023-04-16T05:20:17;23.43;;;12.43;;
5801;SDS011;2927;49.366;8.530;2023-04-16T05:22:43;22.97;;;13.47;;
5801;SDS011;2927;49.366;8.530;2023-04-16T05:25:08;35.20;;;12.93;;
5801;SDS011;2927;49.366;8.530;2023-04-16T05:27:34;24.63;;;12.97;;
5801;SDS011;2927;49.366;8.530;2023-04-16T05:30:01;24.90;;;12.43;;
5801;SDS011;2927;49.366;8.530;2023-04-16T05:32:26;24.23;;;13.43;;
5801;SDS011;2927;49.366;8.530;2023-04-16T05:34:52;20.47;;;11.57;;
5801;SDS011;2927;49.366;8.530;2023-04-16T05:37:18;20.70;;;11.70;;
5801;SDS011;2927;49.366;8.530;2023-04-16T05:39:43;22.53;;;12.70;;
5801;SDS011;2927;49.366;8.530;2023-04-16T05:42:09;21.07;;;12.70;;
5801;SDS011;2927;49.366;8.530;2023-04-16T05:44:34;19.60;;;10.73;;
5801;SDS011;2927;49.366;8.530;2023-04-16T05:47:00;17.97;;;10.00;;
5801;SDS011;2927;49.366;8.530;2023-04-16T05:49:25;21.40;;;11.83;;
5801;SDS011;2927;49.366;8.530;2023-04-16T05:51:51;21.83;;;12.23;;
5801;SDS011;2927;49.366;8.530;2023-04-16T05:54:16;17.93;;;10.27;;
5801;SDS011;2927;49.366;8.530;2023-04-16T05:56:42;22.93;;;11.27;;
5801;SDS011;2927;49.366;8.530;2023-04-16T05:59:08;17.77;;;9.90;;
5801;SDS011;2927;49.366;8.530;2023-04-16T06:01:33;17.03;;;9.90;;
5801;SDS011;2927;49.366;8.530;2023-04-16T06:03:59;15.17;;;8.83;;
5801;SDS011;2927;49.366;8.530;2023-04-16T06:06:24;18.80;;;10.73;;
5801;SDS011;2927;49.366;8.530;2023-04-16T06:08:51;14.83;;;9.13;;
5801;SDS011;2927;49.366;8.530;2023-04-16T06:11:17;16.73;;;9.00;;
5801;SDS011;2927;49.366;8.530;2023-04-16T06:13:43;14.37;;;9.27;;
5801;SDS011;2927;49.366;8.530;2023-04-16T06:16:08;18.33;;;9.30;;
5801;SDS011;2927;49.366;8.530;2023-04-16T06:18:34;17.87;;;10.30;;
5801;SDS011;2927;49.366;8.530;2023-04-16T06:21:00;20.27;;;10.30;;
5801;SDS011;2927;49.366;8.530;2023-04-16T06:23:25;18.03;;;10.33;;
5801;SDS011;2927;49.366;8.530;2023-04-16T06:25:51;19.37;;;10.30;;
5801;SDS011;2927;49.366;8.530;2023-04-16T06:28:16;16.00;;;9.37;;
5801;SDS011;2927;49.366;8.530;2023-04-16T06:30:42;19.10;;;10.47;;
5801;SDS011;2927;49.366;8.530;2023-04-16T06:33:07;15.50;;;10.10;;
5801;SDS011;2927;49.366;8.530;2023-04-16T06:35:33;18.43;;;10.30;;
5801;SDS011;2927;49.366;8.530;2023-04-16T06:37:58;15.37;;;9.00;;
5801;SDS011;2927;49.366;8.530;2023-04-16T06:40:24;19.30;;;10.50;;
5801;SDS011;2927;49.366;8.530;2023-04-16T06:42:50;21.40;;;9.70;;
5801;SDS011;2927;49.366;8.530;2023-04-16T06:45:15;16.80;;;9.23;;
5801;SDS011;2927;49.366;8.530;2023-04-16T06:47:41;22.17;;;10.40;;
5801;SDS011;2927;49.366;8.530;2023-04-16T06:50:07;20.80;;;10.97;;
5801;SDS011;2927;49.366;8.530;2023-04-16T06:52:32;19.57;;;10.93;;
5801;SDS011;2927;49.366;8.530;2023-04-16T06:54:58;23.33;;;11.80;;
5801;SDS011;2927;49.366;8.530;2023-04-16T06:57:23;18.93;;;11.77;;
5801;SDS011;2927;49.366;8.530;2023-04-16T06:59:49;21.57;;;10.67;;
5801;SDS011;2927;49.366;8.530;2023-04-16T07:02:15;18.10;;;10.70;;
5801;SDS011;2927;49.366;8.530;2023-04-16T07:04:40;26.83;;;12.33;;
5801;SDS011;2927;49.366;8.530;2023-04-16T07:07:06;17.70;;;10.23;;
5801;SDS011;2927;49.366;8.530;2023-04-16T07:09:32;18.73;;;10.43;;
5801;SDS011;2927;49.366;8.530;2023-04-16T07:11:57;18.77;;;11.17;;
5801;SDS011;2927;49.366;8.530;2023-04-16T07:14:23;20.07;;;10.93;;
5801;SDS011;2927;49.366;8.530;2023-04-16T07:16:48;24.60;;;11.90;;
5801;SDS011;2927;49.366;8.530;2023-04-16T07:19:14;19.50;;;11.23;;
5801;SDS011;2927;49.366;8.530;2023-04-16T07:21:40;20.60;;;11.60;;
5801;SDS011;2927;49.366;8.530;2023-04-16T07:24:08;22.10;;;12.00;;
5801;SDS011;2927;49.366;8.530;2023-04-16T07:26:37;22.13;;;12.47;;
5801;SDS011;2927;49.366;8.530;2023-04-16T07:29:02;20.83;;;11.57;;
5801;SDS011;2927;49.366;8.530;2023-04-16T07:31:28;22.67;;;12.80;;
5801;SDS011;2927;49.366;8.530;2023-04-16T07:33:53;22.90;;;12.10;;
5801;SDS011;2927;49.366;8.530;2023-04-16T07:36:19;19.67;;;10.93;;
5801;SDS011;2927;49.366;8.530;2023-04-16T07:38:44;20.10;;;12.10;;
5801;SDS011;2927;49.366;8.530;2023-04-16T07:41:10;22.20;;;12.47;;
5801;SDS011;2927;49.366;8.530;2023-04-16T07:43:36;22.97;;;11.47;;
5801;SDS011;2927;49.366;8.530;2023-04-16T07:46:02;18.13;;;11.60;;
5801;SDS011;2927;49.366;8.530;2023-04-16T07:48:27;20.37;;;11.10;;
5801;SDS011;2927;49.366;8.530;2023-04-16T07:50:53;19.80;;;11.20;;
5801;SDS011;2927;49.366;8.530;2023-04-16T07:53:18;22.07;;;12.07;;
5801;SDS011;2927;49.366;8.530;2023-04-16T07:55:44;19.70;;;11.10;;
5801;SDS011;2927;49.366;8.530;2023-04-16T07:58:10;17.53;;;10.87;;
5801;SDS011;2927;49.366;8.530;2023-04-16T08:00:35;26.20;;;11.87;;
5801;SDS011;2927;49.366;8.530;2023-04-16T08:03:01;19.23;;;10.93;;
5801;SDS011;2927;49.366;8.530;2023-04-16T08:05:27;22.80;;;10.17;;
5801;SDS011;2927;49.366;8.530;2023-04-16T08:07:53;19.07;;;10.67;;
5801;SDS011;2927;49.366;8.530;2023-04-16T08:10:18;18.67;;;10.87;;
5801;SDS011;2927;49.366;8.530;2023-04-16T08:12:44;23.07;;;11.30;;
5801;SDS011;2927;49.366;8.530;2023-04-16T08:15:10;26.17;;;11.53;;
5801;SDS011;2927;49.366;8.530;2023-04-16T08:17:35;25.00;;;11.77;;
5801;SDS011;2927;49.366;8.530;2023-04-16T08:20:01;24.93;;;13.10;;
5801;SDS011;2927;49.366;8.530;2023-04-16T08:22:27;23.80;;;12.77;;
5801;SDS011;2927;49.366;8.530;2023-04-16T08:24:53;19.43;;;11.63;;
5801;SDS011;2927;49.366;8.530;2023-04-16T08:27:18;21.93;;;12.10;;
5801;SDS011;2927;49.366;8.530;2023-04-16T08:29:44;17.80;;;11.00;;
5801;SDS011;2927;49.366;8.530;2023-04-16T08:32:09;20.57;;;11.20;;
5801;SDS011;2927;49.366;8.530;2023-04-16T08:34:35;22.00;;;11.63;;
5801;SDS011;2927;49.366;8.530;2023-04-16T08:37:01;26.00;;;11.20;;
5801;SDS011;2927;49.366;8.530;2023-04-16T08:39:27;22.40;;;11.90;;
5801;SDS011;2927;49.366;8.530;2023-04-16T08:41:53;16.10;;;9.67;;
5801;SDS011;2927;49.366;8.530;2023-04-16T08:44:20;18.77;;;11.10;;
5801;SDS011;2927;49.366;8.530;2023-04-16T08:46:54;24.03;;;11.03;;
5801;SDS011;2927;49.366;8.530;2023-04-16T08:49:22;20.17;;;10.60;;
5801;SDS011;2927;49.366;8.530;2023-04-16T08:51:50;16.97;;;10.47;;
5801;SDS011;2927;49.366;8.530;2023-04-16T08:54:27;21.13;;;11.57;;
5801;SDS011;2927;49.366;8.530;2023-04-16T08:57:03;19.27;;;9.90;;
5801;SDS011;2927;49.366;8.530;2023-04-16T08:59:31;21.80;;;9.93;;
5801;SDS011;2927;49.366;8.530;2023-04-16T09:01:57;19.30;;;10.90;;
5801;SDS011;2927;49.366;8.530;2023-04-16T09:04:26;18.97;;;10.63;;
5801;SDS011;2927;49.366;8.530;2023-04-16T09:06:53;16.07;;;9.90;;
5801;SDS011;2927;49.366;8.530;2023-04-16T09:09:20;15.97;;;9.50;;
5801;SDS011;2927;49.366;8.530;2023-04-16T09:11:49;17.67;;;9.30;;
5801;SDS011;2927;49.366;8.530;2023-04-16T09:14:15;19.60;;;10.03;;
5801;SDS011;2927;49.366;8.530;2023-04-16T09:16:42;16.37;;;8.90;;
5801;SDS011;2927;49.366;8.530;2023-04-16T09:19:09;15.83;;;9.70;;
5801;SDS011;2927;49.366;8.530;2023-04-16T09:21:35;18.03;;;9.70;;
5801;SDS011;2927;49.366;8.530;2023-04-16T09:24:02;15.17;;;8.93;;
5801;SDS011;2927;49.366;8.530;2023-04-16T09:26:28;13.80;;;8.97;;
5801;SDS011;2927;49.366;8.530;2023-04-16T09:28:55;19.80;;;9.10;;
5801;SDS011;2927;49.366;8.530;2023-04-16T09:31:20;16.40;;;10.00;;
5801;SDS011;2927;49.366;8.530;2023-04-16T09:33:59;15.07;;;8.60;;
5801;SDS011;2927;49.366;8.530;2023-04-16T09:36:33;18.10;;;9.87;;
5801;SDS011;2927;49.366;8.530;2023-04-16T09:39:01;12.20;;;8.00;;
5801;SDS011;2927;49.366;8.530;2023-04-16T09:41:28;15.23;;;8.70;;
5801;SDS011;2927;49.366;8.530;2023-04-16T09:44:00;13.67;;;8.30;;
5801;SDS011;2927;49.366;8.530;2023-04-16T09:46:28;14.50;;;8.47;;
5801;SDS011;2927;49.366;8.530;2023-04-16T09:48:55;12.23;;;8.43;;
5801;SDS011;2927;49.366;8.530;2023-04-16T09:51:21;17.30;;;9.50;;
5801;SDS011;2927;49.366;8.530;2023-04-16T09:53:50;21.00;;;10.30;;
5801;SDS011;2927;49.366;8.530;2023-04-16T09:56:18;20.23;;;9.30;;
5801;SDS011;2927;49.366;8.530;2023-04-16T09:58:49;18.70;;;9.67;;
5801;SDS011;2927;49.366;8.530;2023-04-16T10:01:20;16.27;;;9.50;;
5801;SDS011;2927;49.366;8.530;2023-04-16T10:03:47;22.93;;;10.73;;
5801;SDS011;2927;49.366;8.530;2023-04-16T10:06:15;19.63;;;10.80;;
5801;SDS011;2927;49.366;8.530;2023-04-16T10:08:45;27.83;;;12.33;;
5801;SDS011;2927;49.366;8.530;2023-04-16T10:11:11;19.07;;;11.07;;
5801;SDS011;2927;49.366;8.530;2023-04-16T10:13:37;24.20;;;11.43;;
5801;SDS011;2927;49.366;8.530;2023-04-16T10:16:02;23.07;;;11.33;;
5801;SDS011;2927;49.366;8.530;2023-04-16T10:18:28;24.50;;;11.93;;
5801;SDS011;2927;49.366;8.530;2023-04-16T10:20:55;26.57;;;12.17;;
5801;SDS011;2927;49.366;8.530;2023-04-16T10:23:21;29.33;;;14.40;;
5801;SDS011;2927;49.366;8.530;2023-04-16T10:25:48;23.33;;;13.70;;
5801;SDS011;2927;49.366;8.530;2023-04-16T10:28:14;22.60;;;13.13;;
5801;SDS011;2927;49.366;8.530;2023-04-16T10:30:41;28.70;;;14.53;;
5801;SDS011;2927;49.366;8.530;2023-04-16T10:33:16;22.00;;;12.70;;
5801;SDS011;2927;49.366;8.530;2023-04-16T10:35:44;25.07;;;12.57;;
5801;SDS011;2927;49.366;8.530;2023-04-16T10:38:25;26.13;;;13.17;;
5801;SDS011;2927;49.366;8.530;2023-04-16T10:41:02;20.40;;;12.53;;
5801;SDS011;2927;49.366;8.530;2023-04-16T10:43:29;37.70;;;29.10;;
5801;SDS011;2927;49.366;8.530;2023-04-16T10:45:55;32.73;;;15.90;;
5801;SDS011;2927;49.366;8.530;2023-04-16T10:48:24;26.50;;;13.63;;
5801;SDS011;2927;49.366;8.530;2023-04-16T10:50:53;25.83;;;12.27;;
5801;SDS011;2927;49.366;8.530;2023-04-16T10:53:24;21.93;;;11.97;;
5801;SDS011;2927;49.366;8.530;2023-04-16T10:58:29;26.77;;;12.93;;
5801;SDS011;2927;49.366;8.530;2023-04-16T11:00:59;24.50;;;13.33;;
5801;SDS011;2927;49.366;8.530;2023-04-16T11:03:31;27.20;;;14.17;;
5801;SDS011;2927;49.366;8.530;2023-04-16T11:06:10;27.33;;;14.20;;
5801;SDS011;2927;49.366;8.530;2023-04-16T11:08:37;29.87;;;14.30;;
5801;SDS011;2927;49.366;8.530;2023-04-16T11:11:04;32.00;;;14.13;;
5801;SDS011;2927;49.366;8.530;2023-04-16T11:13:30;26.73;;;13.13;;
5801;SDS011;2927;49.366;8.530;2023-04-16T11:15:59;18.77;;;11.47;;
5801;SDS011;2927;49.366;8.530;2023-04-16T11:18:25;23.37;;;12.60;;
5801;SDS011;2927;49.366;8.530;2023-04-16T11:20:51;28.20;;;14.57;;
5801;SDS011;2927;49.366;8.530;2023-04-16T11:23:17;22.40;;;12.37;;
5801;SDS011;2927;49.366;8.530;2023-04-16T11:25:43;26.63;;;13.77;;
5801;SDS011;2927;49.366;8.530;2023-04-16T11:28:09;24.80;;;12.07;;
5801;SDS011;2927;49.366;8.530;2023-04-16T11:30:35;25.50;;;13.67;;
5801;SDS011;2927;49.366;8.530;2023-04-16T11:33:02;24.73;;;14.00;;
5801;SDS011;2927;49.366;8.530;2023-04-16T11:35:28;29.00;;;12.53;;
5801;SDS011;2927;49.366;8.530;2023-04-16T11:37:57;23.90;;;13.27;;
5801;SDS011;2927;49.366;8.530;2023-04-16T11:40:23;20.10;;;12.43;;
5801;SDS011;2927;49.366;8.530;2023-04-16T11:42:49;25.03;;;12.00;;
5801;SDS011;2927;49.366;8.530;2023-04-16T11:45:15;30.33;;;14.53;;
5801;SDS011;2927;49.366;8.530;2023-04-16T11:47:44;27.93;;;13.27;;
5801;SDS011;2927;49.366;8.530;2023-04-16T11:50:23;25.30;;;13.30;;
5801;SDS011;2927;49.366;8.530;2023-04-16T11:52:51;32.50;;;14.50;;
5801;SDS011;2927;49.366;8.530;2023-04-16T11:55:17;25.00;;;13.40;;
5801;SDS011;2927;49.366;8.530;2023-04-16T11:57:44;29.53;;;14.63;;
5801;SDS011;2927;49.366;8.530;2023-04-16T12:00:10;24.53;;;14.60;;
5801;SDS011;2927;49.366;8.530;2023-04-16T12:05:25;33.67;;;13.80;;
5801;SDS011;2927;49.366;8.530;2023-04-16T12:07:55;26.77;;;15.40;;
5801;SDS011;2927;49.366;8.530;2023-04-16T12:10:22;34.83;;;16.50;;
5801;SDS011;2927;49.366;8.530;2023-04-16T12:12:49;27.50;;;16.00;;
5801;SDS011;2927;49.366;8.530;2023-04-16T12:15:14;28.60;;;15.50;;
5801;SDS011;2927;49.366;8.530;2023-04-16T12:17:40;30.63;;;15.50;;
5801;SDS011;2927;49.366;8.530;2023-04-16T12:20:09;30.13;;;14.97;;
5801;SDS011;2927;49.366;8.530;2023-04-16T12:22:41;28.00;;;15.80;;
5801;SDS011;2927;49.366;8.530;2023-04-16T12:25:10;39.40;;;20.60;;
5801;SDS011;2927;49.366;8.530;2023-04-16T12:30:12;31.50;;;16.10;;
5801;SDS011;2927;49.366;8.530;2023-04-16T12:32:39;32.93;;;16.80;;
5801;SDS011;2927;49.366;8.530;2023-04-16T12:35:06;26.17;;;14.43;;
5801;SDS011;2927;49.366;8.530;2023-04-16T12:37:32;34.23;;;16.67;;
5801;SDS011;2927;49.366;8.530;2023-04-16T12:39:59;33.60;;;17.97;;
5801;SDS011;2927;49.366;8.530;2023-04-16T12:42:24;28.47;;;17.50;;
5801;SDS011;2927;49.366;8.530;2023-04-16T12:44:50;32.90;;;18.43;;
5801;SDS011;2927;49.366;8.530;2023-04-16T12:47:15;36.07;;;18.37;;
5801;SDS011;2927;49.366;8.530;2023-04-16T12:49:41;30.13;;;16.93;;
5801;SDS011;2927;49.366;8.530;2023-04-16T12:52:08;26.47;;;14.87;;
5801;SDS011;2927;49.366;8.530;2023-04-16T12:54:34;31.00;;;16.03;;
5801;SDS011;2927;49.366;8.530;2023-04-16T12:56:59;30.80;;;14.47;;
5801;SDS011;2927;49.366;8.530;2023-04-16T12:59:25;27.13;;;15.10;;
5801;SDS011;2927;49.366;8.530;2023-04-16T13:01:50;29.20;;;14.60;;
5801;SDS011;2927;49.366;8.530;2023-04-16T13:04:16;30.60;;;15.13;;
5801;SDS011;2927;49.366;8.530;2023-04-16T13:06:43;27.13;;;15.10;;
5801;SDS011;2927;49.366;8.530;2023-04-16T13:09:09;26.97;;;13.93;;
5801;SDS011;2927;49.366;8.530;2023-04-16T13:11:35;24.97;;;14.37;;
5801;SDS011;2927;49.366;8.530;2023-04-16T13:14:01;30.63;;;15.00;;
5801;SDS011;2927;49.366;8.530;2023-04-16T13:16:27;25.83;;;14.50;;
5801;SDS011;2927;49.366;8.530;2023-04-16T13:18:52;26.13;;;14.00;;
5801;SDS011;2927;49.366;8.530;2023-04-16T13:21:18;24.80;;;14.40;;
5801;SDS011;2927;49.366;8.530;2023-04-16T13:23:43;27.17;;;15.43;;
5801;SDS011;2927;49.366;8.530;2023-04-16T13:26:09;28.93;;;15.17;;
5801;SDS011;2927;49.366;8.530;2023-04-16T13:28:36;28.10;;;15.03;;
5801;SDS011;2927;49.366;8.530;2023-04-16T13:31:02;25.80;;;15.93;;
5801;SDS011;2927;49.366;8.530;2023-04-16T13:33:28;24.47;;;14.40;;
5801;SDS011;2927;49.366;8.530;2023-04-16T13:35:53;25.67;;;15.20;;
5801;SDS011;2927;49.366;8.530;2023-04-16T13:38:19;31.97;;;17.37;;
5801;SDS011;2927;49.366;8.530;2023-04-16T13:40:45;32.80;;;17.07;;
5801;SDS011;2927;49.366;8.530;2023-04-16T13:43:11;31.00;;;16.70;;
5801;SDS011;2927;49.366;8.530;2023-04-16T13:45:37;32.70;;;17.60;;
5801;SDS011;2927;49.366;8.530;2023-04-16T13:48:03;29.60;;;16.37;;
5801;SDS011;2927;49.366;8.530;2023-04-16T13:50:29;30.43;;;15.27;;
5801;SDS011;2927;49.366;8.530;2023-04-16T13:52:55;28.57;;;16.80;;
5801;SDS011;2927;49.366;8.530;2023-04-16T13:55:20;30.03;;;17.33;;
5801;SDS011;2927;49.366;8.530;2023-04-16T13:57:46;34.80;;;18.90;;
5801;SDS011;2927;49.366;8.530;2023-04-16T14:00:13;30.57;;;17.10;;
5801;SDS011;2927;49.366;8.530;2023-04-16T14:02:42;36.07;;;17.40;;
5801;SDS011;2927;49.366;8.530;2023-04-16T14:05:09;36.03;;;18.83;;
5801;SDS011;2927;49.366;8.530;2023-04-16T14:07:35;32.83;;;16.67;;
5801;SDS011;2927;49.366;8.530;2023-04-16T14:10:01;34.30;;;17.67;;
5801;SDS011;2927;49.366;8.530;2023-04-16T14:12:27;37.03;;;17.80;;
5801;SDS011;2927;49.366;8.530;2023-04-16T14:14:52;31.40;;;17.90;;
5801;SDS011;2927;49.366;8.530;2023-04-16T14:17:18;34.90;;;17.67;;
5801;SDS011;2927;49.366;8.530;2023-04-16T14:19:43;34.33;;;19.20;;
5801;SDS011;2927;49.366;8.530;2023-04-16T14:22:09;31.00;;;16.30;;
5801;SDS011;2927;49.366;8.530;2023-04-16T14:24:35;29.67;;;18.63;;
5801;SDS011;2927;49.366;8.530;2023-04-16T14:27:00;40.50;;;18.70;;
5801;SDS011;2927;49.366;8.530;2023-04-16T14:29:26;41.60;;;17.63;;
5801;SDS011;2927;49.366;8.530;2023-04-16T14:31:52;36.90;;;20.10;;
5801;SDS011;2927;49.366;8.530;2023-04-16T14:34:17;37.70;;;20.23;;
5801;SDS011;2927;49.366;8.530;2023-04-16T14:36:43;33.93;;;19.50;;
5801;SDS011;2927;49.366;8.530;2023-04-16T14:39:09;38.57;;;20.23;;
5801;SDS011;2927;49.366;8.530;2023-04-16T14:41:35;35.40;;;20.77;;
5801;SDS011;2927;49.366;8.530;2023-04-16T14:44:00;37.67;;;20.83;;
5801;SDS011;2927;49.366;8.530;2023-04-16T14:46:28;42.07;;;20.53;;
5801;SDS011;2927;49.366;8.530;2023-04-16T14:48:54;36.27;;;21.50;;
5801;SDS011;2927;49.366;8.530;2023-04-16T14:51:20;41.77;;;21.63;;